sensor_id;sensor_type;location;lat;lon;timestamp;pressure;altitude;pressure_sealevel;temperature;humidity
75460;BME280;64039;53.060;9.342;2022-11-12T00:00:06;102825.16;;;4.40;100.00
75460;BME280;64039;53.060;9.342;2022-11-12T00:02:31;102834.28;;;4.47;100.00
75460;BME280;64039;53.060;9.342;2022-11-12T00:04:57;102834.34;;;4.36;100.00
75460;BME280;64039;53.060;9.342;2022-11-12T00:07:22;102828.03;;;4.33;100.00
75460;BME280;64039;53.060;9.342;2022-11-12T00:09:48;102830.13;;;4.27;100.00
75460;BME280;64039;53.060;9.342;2022-11-12T00:12:13;102833.56;;;4.37;100.00
75460;BME280;64039;53.060;9.342;2022-11-12T00:14:39;102832.47;;;4.23;100.00
75460;BME280;64039;53.060;9.342;2022-11-12T00:17:04;102832.72;;;4.27;100.00
75460;BME280;64039;53.060;9.342;2022-11-12T00:19:29;102828.34;;;4.25;100.00
75460;BME280;64039;53.060;9.342;2022-11-12T00:21:55;102832.38;;;4.12;100.00
75460;BME280;64039;53.060;9.342;2022-11-12T00:24:20;102827.53;;;4.04;100.00
75460;BME280;64039;53.060;9.342;2022-11-12T00:26:46;102822.84;;;4.11;100.00
75460;BME280;64039;53.060;9.342;2022-11-12T00:29:11;102831.25;;;4.08;100.00
75460;BME280;64039;53.060;9.342;2022-11-12T00:31:37;102826.16;;;4.20;100.00
75460;BME280;64039;53.060;9.342;2022-11-12T00:34:02;102833.13;;;4.21;100.00
75460;BME280;64039;53.060;9.342;2022-11-12T00:36:27;102830.09;;;4.04;100.00
75460;BME280;64039;53.060;9.342;2022-11-12T00:38:53;102841.47;;;3.86;100.00
75460;BME280;64039;53.060;9.342;2022-11-12T00:41:18;102835.66;;;3.99;100.00
75460;BME280;64039;53.060;9.342;2022-11-12T00:43:44;102836.38;;;4.08;100.00
75460;BME280;64039;53.060;9.342;2022-11-12T00:46:10;102837.97;;;3.96;100.00
75460;BME280;64039;53.060;9.342;2022-11-12T00:48:35;102840.28;;;4.03;100.00
75460;BME280;64039;53.060;9.342;2022-11-12T00:51:05;102830.53;;;3.88;100.00
75460;BME280;64039;53.060;9.342;2022-11-12T00:53:31;102837.13;;;3.74;100.00
75460;BME280;64039;53.060;9.342;2022-11-12T00:56:02;102837.94;;;3.73;100.00
75460;BME280;64039;53.060;9.342;2022-11-12T00:58:30;102844.34;;;3.68;100.00
75460;BME280;64039;53.060;9.342;2022-11-12T01:00:56;102843.19;;;3.75;100.00
75460;BME280;64039;53.060;9.342;2022-11-12T01:03:22;102846.44;;;3.62;100.00
75460;BME280;64039;53.060;9.342;2022-11-12T01:05:47;102840.00;;;3.57;100.00
75460;BME280;64039;53.060;9.342;2022-11-12T01:08:13;102841.28;;;3.52;100.00
75460;BME280;64039;53.060;9.342;2022-11-12T01:10:38;102838.22;;;3.45;100.00
75460;BME280;64039;53.060;9.342;2022-11-12T01:13:04;102843.38;;;3.35;100.00
75460;BME280;64039;53.060;9.342;2022-11-12T01:15:29;102851.34;;;3.28;100.00
75460;BME280;64039;53.060;9.342;2022-11-12T01:17:55;102847.50;;;3.23;100.00
75460;BME280;64039;53.060;9.342;2022-11-12T01:20:20;102852.63;;;3.02;100.00
75460;BME280;64039;53.060;9.342;2022-11-12T01:22:46;102844.38;;;2.86;100.00
75460;BME280;64039;53.060;9.342;2022-11-12T01:25:11;102847.84;;;2.76;100.00
75460;BME280;64039;53.060;9.342;2022-11-12T01:27:38;102843.31;;;2.73;100.00
75460;BME280;64039;53.060;9.342;2022-11-12T01:30:04;102839.75;;;2.71;100.00
75460;BME280;64039;53.060;9.342;2022-11-12T01:32:33;102834.75;;;2.83;100.00
75460;BME280;64039;53.060;9.342;2022-11-12T01:34:59;102826.88;;;2.71;100.00
75460;BME280;64039;53.060;9.342;2022-11-12T01:37:24;102835.47;;;2.72;100.00
75460;BME280;64039;53.060;9.342;2022-11-12T01:39:50;102839.13;;;2.84;100.00
75460;BME280;64039;53.060;9.342;2022-11-12T01:42:15;102840.78;;;2.83;100.00
75460;BME280;64039;53.060;9.342;2022-11-12T01:44:42;102840.91;;;2.75;100.00
75460;BME280;64039;53.060;9.342;2022-11-12T01:47:22;102843.97;;;2.71;100.00
75460;BME280;64039;53.060;9.342;2022-11-12T01:52:56;102836.16;;;2.79;100.00
75460;BME280;64039;53.060;9.342;2022-11-12T01:55:28;102841.28;;;2.69;100.00
75460;BME280;64039;53.060;9.342;2022-11-12T01:58:05;102844.88;;;2.71;100.00
75460;BME280;64039;53.060;9.342;2022-11-12T02:00:32;102846.38;;;2.59;100.00
75460;BME280;64039;53.060;9.342;2022-11-12T02:03:00;102847.94;;;2.67;100.00
75460;BME280;64039;53.060;9.342;2022-11-12T02:05:28;102837.81;;;2.69;100.00
75460;BME280;64039;53.060;9.342;2022-11-12T02:07:56;102854.41;;;2.72;100.00
75460;BME280;64039;53.060;9.342;2022-11-12T02:10:23;102843.31;;;2.73;100.00
75460;BME280;64039;53.060;9.342;2022-11-12T02:12:50;102841.25;;;2.59;100.00
75460;BME280;64039;53.060;9.342;2022-11-12T02:15:37;102844.44;;;2.56;100.00
75460;BME280;64039;53.060;9.342;2022-11-12T02:18:04;102851.41;;;2.57;100.00
75460;BME280;64039;53.060;9.342;2022-11-12T02:20:33;102849.06;;;2.50;100.00
75460;BME280;64039;53.060;9.342;2022-11-12T02:23:00;102849.56;;;2.46;100.00
75460;BME280;64039;53.060;9.342;2022-11-12T02:25:27;102847.50;;;2.52;100.00
75460;BME280;64039;53.060;9.342;2022-11-12T02:27:53;102846.09;;;2.45;100.00
75460;BME280;64039;53.060;9.342;2022-11-12T02:30:49;102843.38;;;2.44;100.00
75460;BME280;64039;53.060;9.342;2022-11-12T02:33:16;102835.19;;;2.48;100.00
75460;BME280;64039;53.060;9.342;2022-11-12T02:35:42;102843.78;;;2.38;100.00
75460;BME280;64039;53.060;9.342;2022-11-12T02:38:08;102843.53;;;2.45;100.00
75460;BME280;64039;53.060;9.342;2022-11-12T02:40:34;102845.94;;;2.33;100.00
75460;BME280;64039;53.060;9.342;2022-11-12T02:42:59;102844.78;;;2.40;100.00
75460;BME280;64039;53.060;9.342;2022-11-12T02:45:25;102850.97;;;2.42;100.00
75460;BME280;64039;53.060;9.342;2022-11-12T02:47:51;102856.97;;;2.32;100.00
75460;BME280;64039;53.060;9.342;2022-11-12T02:50:16;102842.56;;;2.24;100.00
75460;BME280;64039;53.060;9.342;2022-11-12T02:52:42;102845.38;;;2.27;100.00
75460;BME280;64039;53.060;9.342;2022-11-12T02:55:09;102856.88;;;2.12;100.00
75460;BME280;64039;53.060;9.342;2022-11-12T02:57:35;102849.97;;;2.21;100.00
75460;BME280;64039;53.060;9.342;2022-11-12T03:00:03;102851.38;;;2.17;100.00
75460;BME280;64039;53.060;9.342;2022-11-12T03:02:29;102853.53;;;2.13;100.00
75460;BME280;64039;53.060;9.342;2022-11-12T03:04:54;102858.22;;;1.98;100.00
75460;BME280;64039;53.060;9.342;2022-11-12T03:07:20;102858.16;;;2.07;100.00
75460;BME280;64039;53.060;9.342;2022-11-12T03:09:45;102845.38;;;2.27;100.00
75460;BME280;64039;53.060;9.342;2022-11-12T03:12:11;102846.53;;;2.20;100.00
75460;BME280;64039;53.060;9.342;2022-11-12T03:14:36;102842.22;;;2.11;100.00
75460;BME280;64039;53.060;9.342;2022-11-12T03:17:02;102844.94;;;2.12;100.00
75460;BME280;64039;53.060;9.342;2022-11-12T03:19:27;102851.72;;;2.12;100.00
75460;BME280;64039;53.060;9.342;2022-11-12T03:21:53;102851.38;;;2.17;100.00
75460;BME280;64039;53.060;9.342;2022-11-12T03:24:18;102848.63;;;2.06;100.00
75460;BME280;64039;53.060;9.342;2022-11-12T03:26:44;102850.84;;;2.11;100.00
75460;BME280;64039;53.060;9.342;2022-11-12T03:29:09;102848.41;;;2.13;100.00
75460;BME280;64039;53.060;9.342;2022-11-12T03:31:34;102843.78;;;2.09;100.00
75460;BME280;64039;53.060;9.342;2022-11-12T03:34:00;102846.34;;;2.09;100.00
75460;BME280;64039;53.060;9.342;2022-11-12T03:36:25;102846.94;;;2.06;100.00
75460;BME280;64039;53.060;9.342;2022-11-12T03:38:51;102851.31;;;2.07;100.00
75460;BME280;64039;53.060;9.342;2022-11-12T03:41:16;102846.56;;;2.01;100.00
75460;BME280;64039;53.060;9.342;2022-11-12T03:43:42;102843.59;;;1.97;100.00
75460;BME280;64039;53.060;9.342;2022-11-12T03:46:07;102852.94;;;1.96;100.00
75460;BME280;64039;53.060;9.342;2022-11-12T03:48:32;102853.50;;;2.02;100.00
75460;BME280;64039;53.060;9.342;2022-11-12T03:50:58;102838.88;;;2.12;100.00
75460;BME280;64039;53.060;9.342;2022-11-12T03:53:25;102843.19;;;1.92;100.00
75460;BME280;64039;53.060;9.342;2022-11-12T03:55:51;102855.22;;;1.93;100.00
75460;BME280;64039;53.060;9.342;2022-11-12T03:58:17;102852.66;;;1.93;100.00
75460;BME280;64039;53.060;9.342;2022-11-12T04:00:43;102835.06;;;1.87;100.00
75460;BME280;64039;53.060;9.342;2022-11-12T04:03:08;102844.94;;;1.83;100.00
75460;BME280;64039;53.060;9.342;2022-11-12T04:05:33;102849.00;;;1.81;100.00
75460;BME280;64039;53.060;9.342;2022-11-12T04:08:20;102838.66;;;1.89;100.00
75460;BME280;64039;53.060;9.342;2022-11-12T04:11:11;102839.06;;;1.94;100.00
75460;BME280;64039;53.060;9.342;2022-11-12T04:13:38;102835.28;;;1.80;100.00
75460;BME280;64039;53.060;9.342;2022-11-12T04:16:11;102844.41;;;1.87;100.00
75460;BME280;64039;53.060;9.342;2022-11-12T04:18:57;102841.78;;;1.77;100.00
75460;BME280;64039;53.060;9.342;2022-11-12T04:24:18;102842.84;;;1.79;100.00
75460;BME280;64039;53.060;9.342;2022-11-12T04:27:03;102839.91;;;1.84;100.00
75460;BME280;64039;53.060;9.342;2022-11-12T04:29:30;102838.41;;;1.86;100.00
75460;BME280;64039;53.060;9.342;2022-11-12T04:32:14;102841.72;;;1.85;100.00
75460;BME280;64039;53.060;9.342;2022-11-12T04:34:40;102847.50;;;1.83;100.00
75460;BME280;64039;53.060;9.342;2022-11-12T04:37:06;102852.41;;;1.90;100.00
75460;BME280;64039;53.060;9.342;2022-11-12T04:39:32;102854.88;;;1.99;100.00
75460;BME280;64039;53.060;9.342;2022-11-12T04:41:58;102857.19;;;1.96;100.00
75460;BME280;64039;53.060;9.342;2022-11-12T04:44:42;102834.56;;;1.92;100.00
75460;BME280;64039;53.060;9.342;2022-11-12T04:47:35;102848.44;;;1.94;100.00
75460;BME280;64039;53.060;9.342;2022-11-12T04:50:04;102845.13;;;1.95;100.00
75460;BME280;64039;53.060;9.342;2022-11-12T04:52:30;102841.91;;;1.97;100.00
75460;BME280;64039;53.060;9.342;2022-11-12T04:54:56;102842.97;;;1.99;100.00
75460;BME280;64039;53.060;9.342;2022-11-12T04:57:22;102849.56;;;1.87;100.00
75460;BME280;64039;53.060;9.342;2022-11-12T04:59:47;102847.22;;;1.80;100.00
75460;BME280;64039;53.060;9.342;2022-11-12T05:02:14;102854.44;;;1.84;100.00
75460;BME280;64039;53.060;9.342;2022-11-12T05:04:40;102841.97;;;2.08;100.00
75460;BME280;64039;53.060;9.342;2022-11-12T05:07:06;102847.63;;;1.84;100.00
75460;BME280;64039;53.060;9.342;2022-11-12T05:09:31;102843.97;;;1.72;100.00
75460;BME280;64039;53.060;9.342;2022-11-12T05:11:57;102836.47;;;1.84;100.00
75460;BME280;64039;53.060;9.342;2022-11-12T05:14:23;102837.56;;;1.77;100.00
75460;BME280;64039;53.060;9.342;2022-11-12T05:16:49;102837.84;;;1.80;100.00
75460;BME280;64039;53.060;9.342;2022-11-12T05:19:15;102843.88;;;1.81;100.00
75460;BME280;64039;53.060;9.342;2022-11-12T05:21:41;102843.13;;;1.82;100.00
75460;BME280;64039;53.060;9.342;2022-11-12T05:24:25;102844.09;;;1.73;100.00
75460;BME280;64039;53.060;9.342;2022-11-12T05:26:51;102843.16;;;1.63;100.00
75460;BME280;64039;53.060;9.342;2022-11-12T05:29:16;102839.66;;;1.62;100.00
75460;BME280;64039;53.060;9.342;2022-11-12T05:31:42;102835.56;;;1.45;100.00
75460;BME280;64039;53.060;9.342;2022-11-12T05:34:08;102832.38;;;1.48;100.00
75460;BME280;64039;53.060;9.342;2022-11-12T05:36:34;102831.13;;;1.34;100.00
75460;BME280;64039;53.060;9.342;2022-11-12T05:38:59;102841.03;;;1.59;100.00
75460;BME280;64039;53.060;9.342;2022-11-12T05:41:25;102851.25;;;1.67;100.00
75460;BME280;64039;53.060;9.342;2022-11-12T05:43:51;102850.69;;;1.61;100.00
75460;BME280;64039;53.060;9.342;2022-11-12T05:46:16;102848.41;;;1.45;100.00
75460;BME280;64039;53.060;9.342;2022-11-12T05:48:42;102846.47;;;1.43;100.00
75460;BME280;64039;53.060;9.342;2022-11-12T05:51:07;102844.47;;;1.21;100.00
75460;BME280;64039;53.060;9.342;2022-11-12T05:53:33;102849.16;;;1.25;100.00
75460;BME280;64039;53.060;9.342;2022-11-12T05:56:02;102843.44;;;1.19;100.00
75460;BME280;64039;53.060;9.342;2022-11-12T05:58:28;102840.03;;;1.09;100.00
75460;BME280;64039;53.060;9.342;2022-11-12T06:00:55;102844.81;;;1.15;100.00
75460;BME280;64039;53.060;9.342;2022-11-12T06:03:21;102844.81;;;1.15;100.00
75460;BME280;64039;53.060;9.342;2022-11-12T06:05:47;102847.06;;;1.21;100.00
75460;BME280;64039;53.060;9.342;2022-11-12T06:08:12;102836.56;;;1.09;100.00
75460;BME280;64039;53.060;9.342;2022-11-12T06:10:37;102847.38;;;1.15;100.00
75460;BME280;64039;53.060;9.342;2022-11-12T06:13:03;102860.41;;;1.08;100.00
75460;BME280;64039;53.060;9.342;2022-11-12T06:15:29;102869.03;;;1.08;100.00
75460;BME280;64039;53.060;9.342;2022-11-12T06:17:54;102851.41;;;1.03;100.00
75460;BME280;64039;53.060;9.342;2022-11-12T06:20:23;102852.06;;;0.91;100.00
75460;BME280;64039;53.060;9.342;2022-11-12T06:22:49;102866.13;;;0.86;100.00
75460;BME280;64039;53.060;9.342;2022-11-12T06:25:15;102869.19;;;1.01;100.00
75460;BME280;64039;53.060;9.342;2022-11-12T06:27:41;102864.78;;;1.09;100.00
75460;BME280;64039;53.060;9.342;2022-11-12T06:30:08;102865.44;;;0.98;100.00
75460;BME280;64039;53.060;9.342;2022-11-12T06:32:34;102867.66;;;1.03;100.00
75460;BME280;64039;53.060;9.342;2022-11-12T06:35:03;102863.06;;;1.18;100.00
75460;BME280;64039;53.060;9.342;2022-11-12T06:37:29;102864.91;;;1.10;100.00
75460;BME280;64039;53.060;9.342;2022-11-12T06:39:54;102866.16;;;1.05;100.00
75460;BME280;64039;53.060;9.342;2022-11-12T06:42:20;102866.88;;;1.13;100.00
75460;BME280;64039;53.060;9.342;2022-11-12T06:44:45;102870.66;;;1.08;100.00
75460;BME280;64039;53.060;9.342;2022-11-12T06:47:11;102876.88;;;1.01;100.00
75460;BME280;64039;53.060;9.342;2022-11-12T06:49:36;102878.13;;;0.96;100.00
75460;BME280;64039;53.060;9.342;2022-11-12T06:52:02;102883.75;;;0.83;100.00
75460;BME280;64039;53.060;9.342;2022-11-12T06:54:28;102882.53;;;0.88;100.00
75460;BME280;64039;53.060;9.342;2022-11-12T06:56:53;102889.63;;;0.91;100.00
75460;BME280;64039;53.060;9.342;2022-11-12T06:59:18;102892.69;;;1.06;100.00
75460;BME280;64039;53.060;9.342;2022-11-12T07:01:44;102891.09;;;1.25;100.00
75460;BME280;64039;53.060;9.342;2022-11-12T07:04:09;102897.47;;;1.20;100.00
75460;BME280;64039;53.060;9.342;2022-11-12T07:06:35;102895.38;;;1.16;100.00
75460;BME280;64039;53.060;9.342;2022-11-12T07:09:01;102888.28;;;1.41;100.00
75460;BME280;64039;53.060;9.342;2022-11-12T07:11:27;102879.13;;;1.35;100.00
75460;BME280;64039;53.060;9.342;2022-11-12T07:13:52;102879.31;;;1.28;100.00
75460;BME280;64039;53.060;9.342;2022-11-12T07:16:18;102907.38;;;1.26;100.00
75460;BME280;64039;53.060;9.342;2022-11-12T07:18:44;102901.03;;;1.31;100.00
75460;BME280;64039;53.060;9.342;2022-11-12T07:21:13;102886.38;;;1.30;100.00
75460;BME280;64039;53.060;9.342;2022-11-12T07:23:39;102876.34;;;1.42;100.00
75460;BME280;64039;53.060;9.342;2022-11-12T07:26:21;102889.50;;;1.36;100.00
75460;BME280;64039;53.060;9.342;2022-11-12T07:28:48;102896.78;;;1.32;100.00
75460;BME280;64039;53.060;9.342;2022-11-12T07:31:17;102900.91;;;1.49;100.00
75460;BME280;64039;53.060;9.342;2022-11-12T07:33:44;102912.38;;;1.52;100.00
75460;BME280;64039;53.060;9.342;2022-11-12T07:36:12;102909.09;;;1.64;100.00
75460;BME280;64039;53.060;9.342;2022-11-12T07:38:39;102894.41;;;1.52;100.00
75460;BME280;64039;53.060;9.342;2022-11-12T07:41:14;102902.03;;;1.61;100.00
75460;BME280;64039;53.060;9.342;2022-11-12T07:43:41;102893.06;;;1.47;100.00
75460;BME280;64039;53.060;9.342;2022-11-12T07:46:13;102908.75;;;1.50;100.00
75460;BME280;64039;53.060;9.342;2022-11-12T07:48:40;102901.75;;;1.58;100.00
75460;BME280;64039;53.060;9.342;2022-11-12T07:51:15;102911.59;;;1.53;100.00
75460;BME280;64039;53.060;9.342;2022-11-12T07:53:42;102916.44;;;1.50;100.00
75460;BME280;64039;53.060;9.342;2022-11-12T07:56:10;102907.47;;;1.36;100.00
75460;BME280;64039;53.060;9.342;2022-11-12T07:58:36;102906.09;;;1.40;100.00
75460;BME280;64039;53.060;9.342;2022-11-12T08:03:46;102902.94;;;1.62;100.00
75460;BME280;64039;53.060;9.342;2022-11-12T08:06:13;102910.22;;;1.57;100.00
75460;BME280;64039;53.060;9.342;2022-11-12T08:08:39;102918.91;;;1.68;100.00
75460;BME280;64039;53.060;9.342;2022-11-12T08:11:04;102916.88;;;1.74;100.00
75460;BME280;64039;53.060;9.342;2022-11-12T08:13:30;102921.47;;;1.68;100.00
75460;BME280;64039;53.060;9.342;2022-11-12T08:15:58;102922.78;;;1.73;100.00
75460;BME280;64039;53.060;9.342;2022-11-12T08:18:25;102914.47;;;1.76;100.00
75460;BME280;64039;53.060;9.342;2022-11-12T08:20:50;102913.47;;;1.65;100.00
75460;BME280;64039;53.060;9.342;2022-11-12T08:23:16;102921.38;;;1.57;100.00
75460;BME280;64039;53.060;9.342;2022-11-12T08:25:41;102928.97;;;1.75;100.00
75460;BME280;64039;53.060;9.342;2022-11-12T08:28:07;102919.41;;;1.83;100.00
75460;BME280;64039;53.060;9.342;2022-11-12T08:30:34;102915.88;;;1.72;100.00
75460;BME280;64039;53.060;9.342;2022-11-12T08:33:04;102922.19;;;1.76;100.00
75460;BME280;64039;53.060;9.342;2022-11-12T08:35:31;102929.50;;;1.81;100.00
75460;BME280;64039;53.060;9.342;2022-11-12T08:38:02;102919.84;;;1.98;100.00
75460;BME280;64039;53.060;9.342;2022-11-12T08:40:31;102916.25;;;2.15;100.00
75460;BME280;64039;53.060;9.342;2022-11-12T08:45:23;102927.31;;;2.43;100.00
75460;BME280;64039;53.060;9.342;2022-11-12T08:47:49;102933.91;;;2.50;100.00
75460;BME280;64039;53.060;9.342;2022-11-12T08:50:14;102926.31;;;2.51;100.00
75460;BME280;64039;53.060;9.342;2022-11-12T08:52:40;102915.06;;;2.70;100.00
75460;BME280;64039;53.060;9.342;2022-11-12T08:55:06;102922.78;;;2.70;100.00
75460;BME280;64039;53.060;9.342;2022-11-12T08:57:38;102930.81;;;2.94;100.00
75460;BME280;64039;53.060;9.342;2022-11-12T09:00:04;102939.47;;;3.05;100.00
75460;BME280;64039;53.060;9.342;2022-11-12T09:02:30;102939.47;;;3.05;100.00
75460;BME280;64039;53.060;9.342;2022-11-12T09:04:56;102940.78;;;3.10;100.00
75460;BME280;64039;53.060;9.342;2022-11-12T09:07:21;102931.78;;;3.15;100.00
75460;BME280;64039;53.060;9.342;2022-11-12T09:09:47;102930.88;;;3.25;100.00
75460;BME280;64039;53.060;9.342;2022-11-12T09:12:12;102931.16;;;3.38;100.00
75460;BME280;64039;53.060;9.342;2022-11-12T09:14:43;102932.19;;;3.61;100.00
75460;BME280;64039;53.060;9.342;2022-11-12T09:17:08;102934.13;;;3.64;100.00
75460;BME280;64039;53.060;9.342;2022-11-12T09:19:33;102931.66;;;3.75;100.00
75460;BME280;64039;53.060;9.342;2022-11-12T09:21:59;102917.84;;;3.96;100.00
75460;BME280;64039;53.060;9.342;2022-11-12T09:24:24;102926.31;;;4.05;100.00
75460;BME280;64039;53.060;9.342;2022-11-12T09:26:52;102933.38;;;4.18;100.00
75460;BME280;64039;53.060;9.342;2022-11-12T09:29:18;102937.75;;;4.29;100.00
75460;BME280;64039;53.060;9.342;2022-11-12T09:31:44;102929.00;;;4.60;100.00
75460;BME280;64039;53.060;9.342;2022-11-12T09:34:09;102928.44;;;4.64;100.00
75460;BME280;64039;53.060;9.342;2022-11-12T09:36:35;102931.28;;;4.67;100.00
75460;BME280;64039;53.060;9.342;2022-11-12T09:39:00;102934.66;;;4.88;100.00
75460;BME280;64039;53.060;9.342;2022-11-12T09:41:31;102928.84;;;4.91;100.00
75460;BME280;64039;53.060;9.342;2022-11-12T09:44:10;102932.75;;;5.08;100.00
75460;BME280;64039;53.060;9.342;2022-11-12T09:46:44;102922.31;;;5.18;100.00
75460;BME280;64039;53.060;9.342;2022-11-12T09:49:29;102928.97;;;5.26;100.00
75460;BME280;64039;53.060;9.342;2022-11-12T09:52:08;102920.13;;;5.34;100.00
75460;BME280;64039;53.060;9.342;2022-11-12T09:54:35;102925.13;;;5.43;100.00
75460;BME280;64039;53.060;9.342;2022-11-12T09:57:01;102933.69;;;5.54;100.00
75460;BME280;64039;53.060;9.342;2022-11-12T09:59:31;102936.41;;;5.67;100.00
75460;BME280;64039;53.060;9.342;2022-11-12T10:02:40;102939.69;;;5.77;100.00
75460;BME280;64039;53.060;9.342;2022-11-12T10:05:32;102927.44;;;5.86;100.00
75460;BME280;64039;53.060;9.342;2022-11-12T10:08:47;102925.78;;;5.98;100.00
75460;BME280;64039;53.060;9.342;2022-11-12T10:20:29;102932.78;;;6.47;100.00
75460;BME280;64039;53.060;9.342;2022-11-12T10:23:37;102933.09;;;6.64;100.00
75460;BME280;64039;53.060;9.342;2022-11-12T10:26:13;102930.88;;;6.82;100.00
75460;BME280;64039;53.060;9.342;2022-11-12T10:28:45;102930.00;;;6.81;100.00
75460;BME280;64039;53.060;9.342;2022-11-12T10:31:14;102932.00;;;6.85;100.00
75460;BME280;64039;53.060;9.342;2022-11-12T10:33:40;102939.72;;;6.97;100.00
75460;BME280;64039;53.060;9.342;2022-11-12T10:36:29;102941.16;;;7.05;100.00
75460;BME280;64039;53.060;9.342;2022-11-12T10:38:55;102928.44;;;7.08;100.00
75460;BME280;64039;53.060;9.342;2022-11-12T10:41:29;102935.75;;;7.14;100.00
75460;BME280;64039;53.060;9.342;2022-11-12T10:44:05;102937.03;;;7.33;100.00
75460;BME280;64039;53.060;9.342;2022-11-12T10:46:36;102935.63;;;7.38;100.00
75460;BME280;64039;53.060;9.342;2022-11-12T10:51:34;102937.84;;;7.45;100.00
75460;BME280;64039;53.060;9.342;2022-11-12T10:54:34;102933.59;;;7.46;100.00
75460;BME280;64039;53.060;9.342;2022-11-12T10:57:23;102933.28;;;7.54;100.00
75460;BME280;64039;53.060;9.342;2022-11-12T11:02:33;102925.19;;;7.50;100.00
75460;BME280;64039;53.060;9.342;2022-11-12T11:04:59;102931.19;;;7.49;100.00
75460;BME280;64039;53.060;9.342;2022-11-12T11:07:25;102935.56;;;7.50;100.00
75460;BME280;64039;53.060;9.342;2022-11-12T11:09:55;102938.69;;;7.58;100.00
75460;BME280;64039;53.060;9.342;2022-11-12T11:12:32;102931.22;;;7.62;100.00
75460;BME280;64039;53.060;9.342;2022-11-12T11:15:05;102938.88;;;7.61;100.00
75460;BME280;64039;53.060;9.342;2022-11-12T11:17:31;102935.63;;;7.63;100.00
75460;BME280;64039;53.060;9.342;2022-11-12T11:19:57;102947.09;;;7.67;100.00
75460;BME280;64039;53.060;9.342;2022-11-12T11:22:40;102938.63;;;7.83;100.00
75460;BME280;64039;53.060;9.342;2022-11-12T11:25:16;102927.06;;;7.91;100.00
75460;BME280;64039;53.060;9.342;2022-11-12T11:28:06;102919.72;;;7.97;100.00
75460;BME280;64039;53.060;9.342;2022-11-12T11:30:51;102917.69;;;8.07;100.00
75460;BME280;64039;53.060;9.342;2022-11-12T11:33:44;102913.03;;;8.14;100.00
75460;BME280;64039;53.060;9.342;2022-11-12T11:36:22;102919.19;;;8.30;100.00
75460;BME280;64039;53.060;9.342;2022-11-12T11:38:58;102919.09;;;8.42;100.00
75460;BME280;64039;53.060;9.342;2022-11-12T11:46:42;102915.78;;;9.00;100.00
75460;BME280;64039;53.060;9.342;2022-11-12T11:52:44;102903.03;;;9.33;100.00
75460;BME280;64039;53.060;9.342;2022-11-12T11:55:34;102896.78;;;9.44;100.00
75460;BME280;64039;53.060;9.342;2022-11-12T12:00:59;102898.78;;;9.63;100.00
75460;BME280;64039;53.060;9.342;2022-11-12T12:04:00;102903.72;;;9.73;100.00
75460;BME280;64039;53.060;9.342;2022-11-12T12:06:34;102902.38;;;9.80;100.00
75460;BME280;64039;53.060;9.342;2022-11-12T12:09:25;102892.22;;;9.85;100.00
75460;BME280;64039;53.060;9.342;2022-11-12T12:12:03;102890.78;;;9.90;100.00
75460;BME280;64039;53.060;9.342;2022-11-12T12:14:48;102887.81;;;9.99;100.00
75460;BME280;64039;53.060;9.342;2022-11-12T12:17:26;102883.75;;;10.04;100.00
75460;BME280;64039;53.060;9.342;2022-11-12T12:20:10;102876.03;;;10.05;100.00
75460;BME280;64039;53.060;9.342;2022-11-12T12:22:50;102873.69;;;10.10;100.00
75460;BME280;64039;53.060;9.342;2022-11-12T12:25:26;102875.09;;;10.20;100.00
75460;BME280;64039;53.060;9.342;2022-11-12T12:28:26;102869.34;;;10.26;100.00
75460;BME280;64039;53.060;9.342;2022-11-12T12:30:57;102867.09;;;10.32;100.00
75460;BME280;64039;53.060;9.342;2022-11-12T12:34:00;102862.91;;;10.50;100.00
75460;BME280;64039;53.060;9.342;2022-11-12T12:36:36;102859.25;;;10.47;100.00
75460;BME280;64039;53.060;9.342;2022-11-12T12:41:43;102850.00;;;10.52;100.00
75460;BME280;64039;53.060;9.342;2022-11-12T12:44:10;102844.94;;;10.55;100.00
75460;BME280;64039;53.060;9.342;2022-11-12T12:46:48;102846.59;;;10.53;100.00
75460;BME280;64039;53.060;9.342;2022-11-12T12:49:24;102845.44;;;10.64;100.00
75460;BME280;64039;53.060;9.342;2022-11-12T12:51:53;102854.31;;;10.68;100.00
75460;BME280;64039;53.060;9.342;2022-11-12T12:56:59;102864.41;;;10.62;100.00
75460;BME280;64039;53.060;9.342;2022-11-12T12:59:25;102853.56;;;10.70;99.00
75460;BME280;64039;53.060;9.342;2022-11-12T13:01:59;102856.28;;;10.72;99.74
75460;BME280;64039;53.060;9.342;2022-11-12T13:04:54;102846.09;;;10.77;99.02
75460;BME280;64039;53.060;9.342;2022-11-12T13:07:37;102850.50;;;10.78;98.93
75460;BME280;64039;53.060;9.342;2022-11-12T13:15:51;102837.47;;;10.94;100.00
75460;BME280;64039;53.060;9.342;2022-11-12T13:21:16;102842.25;;;11.03;100.00
75460;BME280;64039;53.060;9.342;2022-11-12T13:23:51;102839.00;;;11.07;100.00
75460;BME280;64039;53.060;9.342;2022-11-12T13:26:49;102832.75;;;11.04;100.00
75460;BME280;64039;53.060;9.342;2022-11-12T13:34:49;102822.97;;;10.99;100.00
75460;BME280;64039;53.060;9.342;2022-11-12T13:37:19;102830.03;;;11.02;100.00
75460;BME280;64039;53.060;9.342;2022-11-12T13:39:46;102838.66;;;11.01;100.00
75460;BME280;64039;53.060;9.342;2022-11-12T13:42:15;102822.16;;;11.00;100.00
75460;BME280;64039;53.060;9.342;2022-11-12T13:45:00;102821.72;;;11.09;100.00
75460;BME280;64039;53.060;9.342;2022-11-12T13:47:25;102812.78;;;11.04;100.00
75460;BME280;64039;53.060;9.342;2022-11-12T13:49:55;102811.03;;;11.05;100.00
75460;BME280;64039;53.060;9.342;2022-11-12T13:52:27;102811.88;;;11.04;100.00
75460;BME280;64039;53.060;9.342;2022-11-12T13:55:03;102824.25;;;11.08;100.00
75460;BME280;64039;53.060;9.342;2022-11-12T13:57:30;102808.94;;;10.97;100.00
75460;BME280;64039;53.060;9.342;2022-11-12T14:03:06;102816.72;;;10.79;100.00